sensor_id;sensor_type;location;lat;lon;timestamp;temperature;humidity
6627;DHT22;3349;49.830;8.748;2023-04-03T00:01:39;3.50;86.30
6627;DHT22;3349;49.830;8.748;2023-04-03T00:04:06;3.40;84.70
6627;DHT22;3349;49.830;8.748;2023-04-03T00:06:33;3.40;85.00
6627;DHT22;3349;49.830;8.748;2023-04-03T00:09:01;3.40;85.70
6627;DHT22;3349;49.830;8.748;2023-04-03T00:11:29;3.30;86.10
6627;DHT22;3349;49.830;8.748;2023-04-03T00:13:56;3.30;86.30
6627;DHT22;3349;49.830;8.748;2023-04-03T00:16:23;3.30;86.60
6627;DHT22;3349;49.830;8.748;2023-04-03T00:18:50;3.20;86.10
6627;DHT22;3349;49.830;8.748;2023-04-03T00:21:16;3.20;87.40
6627;DHT22;3349;49.830;8.748;2023-04-03T00:23:43;3.20;88.40
6627;DHT22;3349;49.830;8.748;2023-04-03T00:26:10;3.20;87.20
6627;DHT22;3349;49.830;8.748;2023-04-03T00:28:38;3.20;87.40
6627;DHT22;3349;49.830;8.748;2023-04-03T00:31:05;3.10;86.80
6627;DHT22;3349;49.830;8.748;2023-04-03T00:33:32;3.10;86.80
6627;DHT22;3349;49.830;8.748;2023-04-03T00:35:58;3.00;86.50
6627;DHT22;3349;49.830;8.748;2023-04-03T00:38:25;3.00;87.60
6627;DHT22;3349;49.830;8.748;2023-04-03T00:40:52;3.10;88.80
6627;DHT22;3349;49.830;8.748;2023-04-03T00:43:21;3.00;88.80
6627;DHT22;3349;49.830;8.748;2023-04-03T00:45:50;2.90;87.70
6627;DHT22;3349;49.830;8.748;2023-04-03T00:48:20;2.90;88.10
6627;DHT22;3349;49.830;8.748;2023-04-03T00:50:48;2.90;89.70
6627;DHT22;3349;49.830;8.748;2023-04-03T00:53:18;2.90;89.50
6627;DHT22;3349;49.830;8.748;2023-04-03T00:55:49;2.80;89.50
6627;DHT22;3349;49.830;8.748;2023-04-03T00:58:18;2.80;89.00
6627;DHT22;3349;49.830;8.748;2023-04-03T01:00:52;2.70;89.80
6627;DHT22;3349;49.830;8.748;2023-04-03T01:03:22;2.60;90.20
6627;DHT22;3349;49.830;8.748;2023-04-03T01:05:49;2.50;90.30
6627;DHT22;3349;49.830;8.748;2023-04-03T01:08:16;2.50;91.00
6627;DHT22;3349;49.830;8.748;2023-04-03T01:10:43;2.50;93.50
6627;DHT22;3349;49.830;8.748;2023-04-03T01:13:22;2.40;94.10
6627;DHT22;3349;49.830;8.748;2023-04-03T01:15:51;2.30;93.80
6627;DHT22;3349;49.830;8.748;2023-04-03T01:18:18;2.30;93.80
6627;DHT22;3349;49.830;8.748;2023-04-03T01:23:52;2.20;94.80
6627;DHT22;3349;49.830;8.748;2023-04-03T01:26:21;2.10;94.90
6627;DHT22;3349;49.830;8.748;2023-04-03T01:28:48;2.10;95.10
6627;DHT22;3349;49.830;8.748;2023-04-03T01:31:22;2.10;95.10
6627;DHT22;3349;49.830;8.748;2023-04-03T01:33:52;2.10;95.80
6627;DHT22;3349;49.830;8.748;2023-04-03T01:36:21;2.10;96.20
6627;DHT22;3349;49.830;8.748;2023-04-03T01:38:48;2.10;96.40
6627;DHT22;3349;49.830;8.748;2023-04-03T01:41:15;2.00;96.30
6627;DHT22;3349;49.830;8.748;2023-04-03T01:43:42;2.10;96.80
6627;DHT22;3349;49.830;8.748;2023-04-03T01:46:09;2.10;97.10
6627;DHT22;3349;49.830;8.748;2023-04-03T01:48:35;2.20;97.10
6627;DHT22;3349;49.830;8.748;2023-04-03T01:51:03;2.10;97.00
6627;DHT22;3349;49.830;8.748;2023-04-03T01:53:30;2.20;97.30
6627;DHT22;3349;49.830;8.748;2023-04-03T01:55:57;2.20;97.30
6627;DHT22;3349;49.830;8.748;2023-04-03T01:58:24;2.20;97.10
6627;DHT22;3349;49.830;8.748;2023-04-03T02:00:51;2.20;97.10
6627;DHT22;3349;49.830;8.748;2023-04-03T02:03:17;2.10;97.30
6627;DHT22;3349;49.830;8.748;2023-04-03T02:05:44;2.20;97.90
6627;DHT22;3349;49.830;8.748;2023-04-03T02:08:12;2.10;97.80
6627;DHT22;3349;49.830;8.748;2023-04-03T02:10:40;2.20;98.20
6627;DHT22;3349;49.830;8.748;2023-04-03T02:13:06;2.10;98.30
6627;DHT22;3349;49.830;8.748;2023-04-03T02:15:33;2.20;98.30
6627;DHT22;3349;49.830;8.748;2023-04-03T02:18:00;2.10;98.20
6627;DHT22;3349;49.830;8.748;2023-04-03T02:20:26;2.10;98.30
6627;DHT22;3349;49.830;8.748;2023-04-03T02:22:53;2.10;98.30
6627;DHT22;3349;49.830;8.748;2023-04-03T02:25:21;2.10;98.50
6627;DHT22;3349;49.830;8.748;2023-04-03T02:27:48;2.10;98.70
6627;DHT22;3349;49.830;8.748;2023-04-03T02:30:15;2.10;98.90
6627;DHT22;3349;49.830;8.748;2023-04-03T02:32:42;2.10;98.90
6627;DHT22;3349;49.830;8.748;2023-04-03T02:35:09;2.10;99.60
6627;DHT22;3349;49.830;8.748;2023-04-03T02:37:36;2.10;99.20
6627;DHT22;3349;49.830;8.748;2023-04-03T02:40:04;2.10;99.00
6627;DHT22;3349;49.830;8.748;2023-04-03T02:42:33;2.10;98.90
6627;DHT22;3349;49.830;8.748;2023-04-03T02:44:59;2.10;98.90
6627;DHT22;3349;49.830;8.748;2023-04-03T02:47:26;2.10;99.70
6627;DHT22;3349;49.830;8.748;2023-04-03T02:49:53;2.10;99.40
6627;DHT22;3349;49.830;8.748;2023-04-03T02:52:20;2.10;99.10
6627;DHT22;3349;49.830;8.748;2023-04-03T02:54:47;2.00;99.10
6627;DHT22;3349;49.830;8.748;2023-04-03T02:57:14;2.00;99.30
6627;DHT22;3349;49.830;8.748;2023-04-03T02:59:42;2.00;99.30
6627;DHT22;3349;49.830;8.748;2023-04-03T03:02:10;1.90;99.50
6627;DHT22;3349;49.830;8.748;2023-04-03T03:04:37;1.90;99.70
6627;DHT22;3349;49.830;8.748;2023-04-03T03:07:04;1.90;99.90
6627;DHT22;3349;49.830;8.748;2023-04-03T03:09:31;1.90;99.90
6627;DHT22;3349;49.830;8.748;2023-04-03T03:11:58;1.90;99.90
6627;DHT22;3349;49.830;8.748;2023-04-03T03:14:25;1.90;99.90
6627;DHT22;3349;49.830;8.748;2023-04-03T03:16:53;1.80;99.90
6627;DHT22;3349;49.830;8.748;2023-04-03T03:19:20;1.80;99.90
6627;DHT22;3349;49.830;8.748;2023-04-03T03:21:47;1.80;99.90
6627;DHT22;3349;49.830;8.748;2023-04-03T03:26:44;1.80;99.90
6627;DHT22;3349;49.830;8.748;2023-04-03T03:29:11;1.80;99.90
6627;DHT22;3349;49.830;8.748;2023-04-03T03:31:38;1.80;99.90
6627;DHT22;3349;49.830;8.748;2023-04-03T03:34:06;1.80;99.90
6627;DHT22;3349;49.830;8.748;2023-04-03T03:36:32;1.80;99.90
6627;DHT22;3349;49.830;8.748;2023-04-03T03:39:00;1.70;99.90
6627;DHT22;3349;49.830;8.748;2023-04-03T03:41:26;1.70;99.90
6627;DHT22;3349;49.830;8.748;2023-04-03T03:43:53;1.70;99.90
6627;DHT22;3349;49.830;8.748;2023-04-03T03:46:20;1.70;99.90
6627;DHT22;3349;49.830;8.748;2023-04-03T03:48:46;1.70;99.90
6627;DHT22;3349;49.830;8.748;2023-04-03T03:51:14;1.80;99.90
6627;DHT22;3349;49.830;8.748;2023-04-03T03:53:42;1.80;99.90
6627;DHT22;3349;49.830;8.748;2023-04-03T03:56:08;1.90;99.90
6627;DHT22;3349;49.830;8.748;2023-04-03T03:58:35;1.90;99.90
6627;DHT22;3349;49.830;8.748;2023-04-03T04:01:03;2.00;99.90
6627;DHT22;3349;49.830;8.748;2023-04-03T04:03:30;1.90;99.90
6627;DHT22;3349;49.830;8.748;2023-04-03T04:05:57;2.00;99.90
6627;DHT22;3349;49.830;8.748;2023-04-03T04:08:25;2.10;99.90
6627;DHT22;3349;49.830;8.748;2023-04-03T04:10:52;2.10;99.90
6627;DHT22;3349;49.830;8.748;2023-04-03T04:13:19;2.10;99.90
6627;DHT22;3349;49.830;8.748;2023-04-03T04:15:46;2.10;99.90
6627;DHT22;3349;49.830;8.748;2023-04-03T04:18:12;2.20;99.90
6627;DHT22;3349;49.830;8.748;2023-04-03T04:20:40;2.20;99.90
6627;DHT22;3349;49.830;8.748;2023-04-03T04:23:06;2.40;99.90
6627;DHT22;3349;49.830;8.748;2023-04-03T04:25:34;2.40;99.90
6627;DHT22;3349;49.830;8.748;2023-04-03T04:28:01;2.40;99.90
6627;DHT22;3349;49.830;8.748;2023-04-03T04:30:28;2.40;99.90
6627;DHT22;3349;49.830;8.748;2023-04-03T04:32:54;2.50;99.90
6627;DHT22;3349;49.830;8.748;2023-04-03T04:35:21;2.60;99.90
6627;DHT22;3349;49.830;8.748;2023-04-03T04:37:48;2.60;99.90
6627;DHT22;3349;49.830;8.748;2023-04-03T04:40:15;2.60;99.90
6627;DHT22;3349;49.830;8.748;2023-04-03T04:42:43;2.70;99.90
6627;DHT22;3349;49.830;8.748;2023-04-03T04:45:10;2.70;99.90
6627;DHT22;3349;49.830;8.748;2023-04-03T04:47:37;2.70;99.90
6627;DHT22;3349;49.830;8.748;2023-04-03T04:50:04;2.80;99.90
6627;DHT22;3349;49.830;8.748;2023-04-03T04:52:32;2.80;99.90
6627;DHT22;3349;49.830;8.748;2023-04-03T04:54:58;2.80;99.90
6627;DHT22;3349;49.830;8.748;2023-04-03T04:57:25;2.80;99.90
6627;DHT22;3349;49.830;8.748;2023-04-03T04:59:53;2.80;99.90
6627;DHT22;3349;49.830;8.748;2023-04-03T05:02:20;2.80;99.90
6627;DHT22;3349;49.830;8.748;2023-04-03T05:04:47;2.80;99.90
6627;DHT22;3349;49.830;8.748;2023-04-03T05:07:15;2.90;99.90
6627;DHT22;3349;49.830;8.748;2023-04-03T05:09:42;2.90;99.90
6627;DHT22;3349;49.830;8.748;2023-04-03T05:12:09;2.90;99.70
6627;DHT22;3349;49.830;8.748;2023-04-03T05:14:35;2.90;98.80
6627;DHT22;3349;49.830;8.748;2023-04-03T05:17:03;3.00;98.10
6627;DHT22;3349;49.830;8.748;2023-04-03T05:19:30;3.00;98.20
6627;DHT22;3349;49.830;8.748;2023-04-03T05:21:57;3.10;97.80
6627;DHT22;3349;49.830;8.748;2023-04-03T05:24:23;3.10;97.60
6627;DHT22;3349;49.830;8.748;2023-04-03T05:26:51;3.20;97.60
6627;DHT22;3349;49.830;8.748;2023-04-03T05:29:18;3.20;96.80
6627;DHT22;3349;49.830;8.748;2023-04-03T05:31:44;3.20;96.70
6627;DHT22;3349;49.830;8.748;2023-04-03T05:34:12;3.30;97.00
6627;DHT22;3349;49.830;8.748;2023-04-03T05:36:39;3.30;96.50
6627;DHT22;3349;49.830;8.748;2023-04-03T05:39:07;3.30;95.70
6627;DHT22;3349;49.830;8.748;2023-04-03T05:41:33;3.30;95.30
6627;DHT22;3349;49.830;8.748;2023-04-03T05:44:00;3.30;95.00
6627;DHT22;3349;49.830;8.748;2023-04-03T05:46:27;3.30;94.90
6627;DHT22;3349;49.830;8.748;2023-04-03T05:48:54;3.40;95.20
6627;DHT22;3349;49.830;8.748;2023-04-03T05:51:25;3.40;93.90
6627;DHT22;3349;49.830;8.748;2023-04-03T05:53:58;3.50;94.30
6627;DHT22;3349;49.830;8.748;2023-04-03T05:56:26;3.60;93.90
6627;DHT22;3349;49.830;8.748;2023-04-03T05:58:53;3.60;93.60
6627;DHT22;3349;49.830;8.748;2023-04-03T06:01:20;3.70;93.10
6627;DHT22;3349;49.830;8.748;2023-04-03T06:03:47;3.70;92.40
6627;DHT22;3349;49.830;8.748;2023-04-03T06:06:14;3.70;92.40
6627;DHT22;3349;49.830;8.748;2023-04-03T06:08:42;3.70;92.20
6627;DHT22;3349;49.830;8.748;2023-04-03T06:11:10;3.80;92.40
6627;DHT22;3349;49.830;8.748;2023-04-03T06:13:36;3.80;92.60
6627;DHT22;3349;49.830;8.748;2023-04-03T06:16:05;3.90;92.30
6627;DHT22;3349;49.830;8.748;2023-04-03T06:18:31;3.90;91.50
6627;DHT22;3349;49.830;8.748;2023-04-03T06:20:58;3.90;91.00
6627;DHT22;3349;49.830;8.748;2023-04-03T06:23:26;4.00;90.40
6627;DHT22;3349;49.830;8.748;2023-04-03T06:25:54;4.00;89.10
6627;DHT22;3349;49.830;8.748;2023-04-03T06:28:21;4.00;89.20
6627;DHT22;3349;49.830;8.748;2023-04-03T06:30:47;4.10;88.80
6627;DHT22;3349;49.830;8.748;2023-04-03T06:33:14;4.10;87.00
6627;DHT22;3349;49.830;8.748;2023-04-03T06:35:41;4.10;87.20
6627;DHT22;3349;49.830;8.748;2023-04-03T06:38:07;4.00;85.40
6627;DHT22;3349;49.830;8.748;2023-04-03T06:40:35;4.00;84.30
6627;DHT22;3349;49.830;8.748;2023-04-03T06:43:03;4.00;84.00
6627;DHT22;3349;49.830;8.748;2023-04-03T06:45:30;4.00;84.60
6627;DHT22;3349;49.830;8.748;2023-04-03T06:47:57;4.00;84.40
6627;DHT22;3349;49.830;8.748;2023-04-03T06:50:24;4.10;85.10
6627;DHT22;3349;49.830;8.748;2023-04-03T06:52:51;4.10;84.10
6627;DHT22;3349;49.830;8.748;2023-04-03T06:55:18;4.10;83.30
6627;DHT22;3349;49.830;8.748;2023-04-03T06:57:45;4.10;83.60
6627;DHT22;3349;49.830;8.748;2023-04-03T07:00:14;4.20;84.00
6627;DHT22;3349;49.830;8.748;2023-04-03T07:02:41;4.20;83.30
6627;DHT22;3349;49.830;8.748;2023-04-03T07:05:09;4.20;82.80
6627;DHT22;3349;49.830;8.748;2023-04-03T07:07:35;4.30;82.90
6627;DHT22;3349;49.830;8.748;2023-04-03T07:10:04;4.40;83.90
6627;DHT22;3349;49.830;8.748;2023-04-03T07:12:30;4.60;73.70
6627;DHT22;3349;49.830;8.748;2023-04-03T07:14:57;4.70;73.10
6627;DHT22;3349;49.830;8.748;2023-04-03T07:17:25;4.70;71.00
6627;DHT22;3349;49.830;8.748;2023-04-03T07:19:52;4.80;70.20
6627;DHT22;3349;49.830;8.748;2023-04-03T07:22:19;5.00;70.40
6627;DHT22;3349;49.830;8.748;2023-04-03T07:24:46;5.00;67.00
6627;DHT22;3349;49.830;8.748;2023-04-03T07:27:12;5.10;67.60
6627;DHT22;3349;49.830;8.748;2023-04-03T07:29:40;5.40;67.30
6627;DHT22;3349;49.830;8.748;2023-04-03T07:32:06;6.00;62.30
6627;DHT22;3349;49.830;8.748;2023-04-03T07:34:34;6.50;59.40
6627;DHT22;3349;49.830;8.748;2023-04-03T07:37:02;6.80;54.80
6627;DHT22;3349;49.830;8.748;2023-04-03T07:39:30;6.50;54.50
6627;DHT22;3349;49.830;8.748;2023-04-03T07:41:56;6.80;54.80
6627;DHT22;3349;49.830;8.748;2023-04-03T07:44:23;7.40;51.90
6627;DHT22;3349;49.830;8.748;2023-04-03T07:46:50;7.60;51.40
6627;DHT22;3349;49.830;8.748;2023-04-03T07:49:17;7.60;52.10
6627;DHT22;3349;49.830;8.748;2023-04-03T07:51:45;7.60;51.40
6627;DHT22;3349;49.830;8.748;2023-04-03T07:54:12;7.80;51.50
6627;DHT22;3349;49.830;8.748;2023-04-03T07:56:39;8.10;49.60
6627;DHT22;3349;49.830;8.748;2023-04-03T07:59:06;7.90;49.20
6627;DHT22;3349;49.830;8.748;2023-04-03T08:01:33;7.50;48.70
6627;DHT22;3349;49.830;8.748;2023-04-03T08:04:00;7.30;49.70
6627;DHT22;3349;49.830;8.748;2023-04-03T08:06:27;7.00;50.70
6627;DHT22;3349;49.830;8.748;2023-04-03T08:08:56;7.00;51.00
6627;DHT22;3349;49.830;8.748;2023-04-03T08:11:22;6.90;49.50
6627;DHT22;3349;49.830;8.748;2023-04-03T08:13:52;6.80;50.40
6627;DHT22;3349;49.830;8.748;2023-04-03T08:16:21;7.00;50.40
6627;DHT22;3349;49.830;8.748;2023-04-03T08:18:48;7.20;49.10
6627;DHT22;3349;49.830;8.748;2023-04-03T08:21:16;7.40;48.10
6627;DHT22;3349;49.830;8.748;2023-04-03T08:23:43;7.50;47.30
6627;DHT22;3349;49.830;8.748;2023-04-03T08:26:15;7.40;48.00
6627;DHT22;3349;49.830;8.748;2023-04-03T08:28:42;7.50;47.30
6627;DHT22;3349;49.830;8.748;2023-04-03T08:31:11;7.20;46.20
6627;DHT22;3349;49.830;8.748;2023-04-03T08:33:39;7.20;48.20
6627;DHT22;3349;49.830;8.748;2023-04-03T08:36:16;7.00;47.80
6627;DHT22;3349;49.830;8.748;2023-04-03T08:38:43;7.00;47.60
6627;DHT22;3349;49.830;8.748;2023-04-03T08:41:15;7.10;47.50
6627;DHT22;3349;49.830;8.748;2023-04-03T08:43:55;7.40;48.00
6627;DHT22;3349;49.830;8.748;2023-04-03T08:46:31;7.60;46.20
6627;DHT22;3349;49.830;8.748;2023-04-03T08:49:02;7.70;45.90
6627;DHT22;3349;49.830;8.748;2023-04-03T08:51:31;8.00;47.20
6627;DHT22;3349;49.830;8.748;2023-04-03T08:54:01;8.00;47.70
6627;DHT22;3349;49.830;8.748;2023-04-03T08:56:33;8.00;46.80
6627;DHT22;3349;49.830;8.748;2023-04-03T08:59:01;8.00;48.20
6627;DHT22;3349;49.830;8.748;2023-04-03T09:01:34;8.00;47.70
6627;DHT22;3349;49.830;8.748;2023-04-03T09:04:09;8.00;47.70
6627;DHT22;3349;49.830;8.748;2023-04-03T09:06:38;8.10;46.40
6627;DHT22;3349;49.830;8.748;2023-04-03T09:09:12;8.10;47.60
6627;DHT22;3349;49.830;8.748;2023-04-03T09:11:49;8.20;46.30
6627;DHT22;3349;49.830;8.748;2023-04-03T09:14:22;8.40;46.60
6627;DHT22;3349;49.830;8.748;2023-04-03T09:16:55;8.60;45.90
6627;DHT22;3349;49.830;8.748;2023-04-03T09:19:28;8.50;44.90
6627;DHT22;3349;49.830;8.748;2023-04-03T09:21:58;8.50;45.80
6627;DHT22;3349;49.830;8.748;2023-04-03T09:24:26;9.00;45.80
6627;DHT22;3349;49.830;8.748;2023-04-03T09:26:57;10.60;40.40
6627;DHT22;3349;49.830;8.748;2023-04-03T09:29:26;12.20;36.80
6627;DHT22;3349;49.830;8.748;2023-04-03T09:31:56;14.10;32.10
6627;DHT22;3349;49.830;8.748;2023-04-03T09:34:25;15.20;28.40
6627;DHT22;3349;49.830;8.748;2023-04-03T09:36:54;14.10;28.60
6627;DHT22;3349;49.830;8.748;2023-04-03T09:39:24;13.30;29.90
6627;DHT22;3349;49.830;8.748;2023-04-03T09:41:58;12.60;30.80
6627;DHT22;3349;49.830;8.748;2023-04-03T09:44:27;11.80;31.20
6627;DHT22;3349;49.830;8.748;2023-04-03T09:46:54;11.10;32.60
6627;DHT22;3349;49.830;8.748;2023-04-03T09:49:21;10.50;33.70
6627;DHT22;3349;49.830;8.748;2023-04-03T09:51:48;10.20;35.00
6627;DHT22;3349;49.830;8.748;2023-04-03T09:54:30;10.10;35.60
6627;DHT22;3349;49.830;8.748;2023-04-03T09:57:03;12.20;33.50
6627;DHT22;3349;49.830;8.748;2023-04-03T09:59:31;13.30;29.50
6627;DHT22;3349;49.830;8.748;2023-04-03T10:02:00;13.60;29.60
6627;DHT22;3349;49.830;8.748;2023-04-03T10:04:38;13.60;32.50
6627;DHT22;3349;49.830;8.748;2023-04-03T10:07:26;13.40;32.70
6627;DHT22;3349;49.830;8.748;2023-04-03T10:09:55;13.10;34.00
6627;DHT22;3349;49.830;8.748;2023-04-03T10:12:24;12.40;32.20
6627;DHT22;3349;49.830;8.748;2023-04-03T10:14:55;12.40;34.60
6627;DHT22;3349;49.830;8.748;2023-04-03T10:17:30;12.30;33.60
6627;DHT22;3349;49.830;8.748;2023-04-03T10:20:05;11.70;34.50
6627;DHT22;3349;49.830;8.748;2023-04-03T10:22:39;11.20;35.50
6627;DHT22;3349;49.830;8.748;2023-04-03T10:25:15;11.00;35.60
6627;DHT22;3349;49.830;8.748;2023-04-03T10:27:51;11.40;36.90
6627;DHT22;3349;49.830;8.748;2023-04-03T10:30:34;11.70;34.40
6627;DHT22;3349;49.830;8.748;2023-04-03T10:33:16;12.00;34.20
6627;DHT22;3349;49.830;8.748;2023-04-03T10:35:52;11.10;35.30
6627;DHT22;3349;49.830;8.748;2023-04-03T10:38:30;10.50;36.20
6627;DHT22;3349;49.830;8.748;2023-04-03T10:41:04;9.80;38.50
6627;DHT22;3349;49.830;8.748;2023-04-03T10:43:42;9.60;37.50
6627;DHT22;3349;49.830;8.748;2023-04-03T10:46:13;9.80;38.30
6627;DHT22;3349;49.830;8.748;2023-04-03T10:48:51;10.40;36.50
6627;DHT22;3349;49.830;8.748;2023-04-03T10:51:27;11.40;35.90
6627;DHT22;3349;49.830;8.748;2023-04-03T10:54:01;12.10;35.00
6627;DHT22;3349;49.830;8.748;2023-04-03T10:56:33;12.00;33.90
6627;DHT22;3349;49.830;8.748;2023-04-03T10:59:13;12.10;33.80
6627;DHT22;3349;49.830;8.748;2023-04-03T11:01:45;12.20;33.50
6627;DHT22;3349;49.830;8.748;2023-04-03T11:04:13;12.40;31.50
6627;DHT22;3349;49.830;8.748;2023-04-03T11:06:45;11.70;33.00
6627;DHT22;3349;49.830;8.748;2023-04-03T11:09:21;11.50;34.30
6627;DHT22;3349;49.830;8.748;2023-04-03T11:11:51;11.30;35.30
6627;DHT22;3349;49.830;8.748;2023-04-03T11:14:26;10.80;35.80
6627;DHT22;3349;49.830;8.748;2023-04-03T11:17:01;11.10;35.40
6627;DHT22;3349;49.830;8.748;2023-04-03T11:19:35;10.90;34.50
6627;DHT22;3349;49.830;8.748;2023-04-03T11:22:08;10.50;34.90
6627;DHT22;3349;49.830;8.748;2023-04-03T11:24:37;10.60;35.20
6627;DHT22;3349;49.830;8.748;2023-04-03T11:27:13;10.60;36.40
6627;DHT22;3349;49.830;8.748;2023-04-03T11:29:45;12.50;33.70
6627;DHT22;3349;49.830;8.748;2023-04-03T11:32:27;13.60;33.50
6627;DHT22;3349;49.830;8.748;2023-04-03T11:34:58;13.80;29.70
6627;DHT22;3349;49.830;8.748;2023-04-03T11:37:31;13.60;34.70
6627;DHT22;3349;49.830;8.748;2023-04-03T11:40:02;13.30;30.40
6627;DHT22;3349;49.830;8.748;2023-04-03T11:42:33;13.30;30.20
6627;DHT22;3349;49.830;8.748;2023-04-03T11:45:36;13.00;28.90
6627;DHT22;3349;49.830;8.748;2023-04-03T11:48:06;12.40;29.00
6627;DHT22;3349;49.830;8.748;2023-04-03T11:50:44;13.60;30.60
6627;DHT22;3349;49.830;8.748;2023-04-03T11:53:30;14.80;27.70
6627;DHT22;3349;49.830;8.748;2023-04-03T11:55:59;16.50;27.40
6627;DHT22;3349;49.830;8.748;2023-04-03T11:58:28;17.90;25.10
6627;DHT22;3349;49.830;8.748;2023-04-03T12:01:07;18.50;23.20
6627;DHT22;3349;49.830;8.748;2023-04-03T12:07:00;19.80;23.00
6627;DHT22;3349;49.830;8.748;2023-04-03T12:12:36;18.80;22.00
6627;DHT22;3349;49.830;8.748;2023-04-03T12:15:26;19.10;22.60
6627;DHT22;3349;49.830;8.748;2023-04-03T12:21:19;18.20;22.20
6627;DHT22;3349;49.830;8.748;2023-04-03T12:23:59;17.90;22.60
6627;DHT22;3349;49.830;8.748;2023-04-03T12:26:31;16.80;23.00
6627;DHT22;3349;49.830;8.748;2023-04-03T12:28:58;16.00;22.00
6627;DHT22;3349;49.830;8.748;2023-04-03T12:31:40;15.70;23.20
6627;DHT22;3349;49.830;8.748;2023-04-03T12:34:24;14.90;24.40
6627;DHT22;3349;49.830;8.748;2023-04-03T12:37:01;14.40;24.80
6627;DHT22;3349;49.830;8.748;2023-04-03T12:39:51;13.30;24.40
6627;DHT22;3349;49.830;8.748;2023-04-03T12:42:29;12.40;26.20
6627;DHT22;3349;49.830;8.748;2023-04-03T12:45:02;12.10;25.40
6627;DHT22;3349;49.830;8.748;2023-04-03T12:47:37;11.50;25.00
6627;DHT22;3349;49.830;8.748;2023-04-03T12:50:18;11.00;25.20
6627;DHT22;3349;49.830;8.748;2023-04-03T12:52:52;10.70;27.10
6627;DHT22;3349;49.830;8.748;2023-04-03T12:55:22;10.40;27.80
6627;DHT22;3349;49.830;8.748;2023-04-03T12:57:49;10.20;29.00
6627;DHT22;3349;49.830;8.748;2023-04-03T13:00:21;10.00;28.10
6627;DHT22;3349;49.830;8.748;2023-04-03T13:02:48;9.80;29.20
6627;DHT22;3349;49.830;8.748;2023-04-03T13:05:18;9.70;28.50
6627;DHT22;3349;49.830;8.748;2023-04-03T13:07:50;9.50;28.70
6627;DHT22;3349;49.830;8.748;2023-04-03T13:10:19;9.50;29.10
6627;DHT22;3349;49.830;8.748;2023-04-03T13:12:52;9.50;29.20
6627;DHT22;3349;49.830;8.748;2023-04-03T13:15:20;9.40;28.30
6627;DHT22;3349;49.830;8.748;2023-04-03T13:17:48;9.20;29.10
6627;DHT22;3349;49.830;8.748;2023-04-03T13:20:22;9.10;29.00
6627;DHT22;3349;49.830;8.748;2023-04-03T13:22:55;9.00;28.70
6627;DHT22;3349;49.830;8.748;2023-04-03T13:25:25;8.90;27.50
6627;DHT22;3349;49.830;8.748;2023-04-03T13:27:53;8.80;28.10
6627;DHT22;3349;49.830;8.748;2023-04-03T13:30:24;8.60;28.30
6627;DHT22;3349;49.830;8.748;2023-04-03T13:32:52;8.60;29.50
6627;DHT22;3349;49.830;8.748;2023-04-03T13:35:31;8.50;29.80
6627;DHT22;3349;49.830;8.748;2023-04-03T13:38:02;8.60;32.00
6627;DHT22;3349;49.830;8.748;2023-04-03T13:40:31;8.60;31.40
6627;DHT22;3349;49.830;8.748;2023-04-03T13:43:04;8.60;30.40
6627;DHT22;3349;49.830;8.748;2023-04-03T13:45:32;8.60;28.50
6627;DHT22;3349;49.830;8.748;2023-04-03T13:48:15;8.60;29.80
6627;DHT22;3349;49.830;8.748;2023-04-03T13:51:01;8.60;30.80
6627;DHT22;3349;49.830;8.748;2023-04-03T13:53:32;8.70;29.00
6627;DHT22;3349;49.830;8.748;2023-04-03T13:56:06;8.80;29.40
6627;DHT22;3349;49.830;8.748;2023-04-03T13:58:36;8.70;28.90
6627;DHT22;3349;49.830;8.748;2023-04-03T14:01:10;8.70;28.40
6627;DHT22;3349;49.830;8.748;2023-04-03T14:03:42;8.70;28.80
6627;DHT22;3349;49.830;8.748;2023-04-03T14:06:11;8.70;30.00
6627;DHT22;3349;49.830;8.748;2023-04-03T14:08:40;8.80;29.40
6627;DHT22;3349;49.830;8.748;2023-04-03T14:11:13;8.80;29.60
6627;DHT22;3349;49.830;8.748;2023-04-03T14:13:41;8.80;29.50
6627;DHT22;3349;49.830;8.748;2023-04-03T14:16:11;8.90;29.50
6627;DHT22;3349;49.830;8.748;2023-04-03T14:18:38;9.10;29.50
6627;DHT22;3349;49.830;8.748;2023-04-03T14:21:05;9.30;29.40
6627;DHT22;3349;49.830;8.748;2023-04-03T14:23:32;9.50;29.90
6627;DHT22;3349;49.830;8.748;2023-04-03T14:26:01;9.60;29.40
6627;DHT22;3349;49.830;8.748;2023-04-03T14:28:29;9.60;29.80
6627;DHT22;3349;49.830;8.748;2023-04-03T14:30:58;9.80;29.40
6627;DHT22;3349;49.830;8.748;2023-04-03T14:33:24;9.80;29.20
6627;DHT22;3349;49.830;8.748;2023-04-03T14:35:53;9.70;28.00
6627;DHT22;3349;49.830;8.748;2023-04-03T14:38:23;9.60;28.80
6627;DHT22;3349;49.830;8.748;2023-04-03T14:40:51;9.70;29.30
6627;DHT22;3349;49.830;8.748;2023-04-03T14:43:20;9.60;29.30
6627;DHT22;3349;49.830;8.748;2023-04-03T14:45:48;9.50;29.60
6627;DHT22;3349;49.830;8.748;2023-04-03T14:48:18;9.50;30.20
6627;DHT22;3349;49.830;8.748;2023-04-03T14:50:45;9.40;30.00
6627;DHT22;3349;49.830;8.748;2023-04-03T14:53:13;9.30;28.80
6627;DHT22;3349;49.830;8.748;2023-04-03T14:55:40;9.30;28.90
6627;DHT22;3349;49.830;8.748;2023-04-03T14:58:11;9.30;29.40
6627;DHT22;3349;49.830;8.748;2023-04-03T15:00:40;9.20;29.60
6627;DHT22;3349;49.830;8.748;2023-04-03T15:03:12;9.20;29.50
6627;DHT22;3349;49.830;8.748;2023-04-03T15:05:39;9.10;29.80
6627;DHT22;3349;49.830;8.748;2023-04-03T15:08:12;9.00;29.70
6627;DHT22;3349;49.830;8.748;2023-04-03T15:10:43;9.10;30.90
6627;DHT22;3349;49.830;8.748;2023-04-03T15:13:11;9.10;28.20
6627;DHT22;3349;49.830;8.748;2023-04-03T15:15:40;9.10;28.70
6627;DHT22;3349;49.830;8.748;2023-04-03T15:18:12;9.20;29.00
6627;DHT22;3349;49.830;8.748;2023-04-03T15:20:40;9.20;29.20
6627;DHT22;3349;49.830;8.748;2023-04-03T15:23:10;9.00;29.60
6627;DHT22;3349;49.830;8.748;2023-04-03T15:25:37;8.90;28.40
6627;DHT22;3349;49.830;8.748;2023-04-03T15:28:05;8.90;28.70
6627;DHT22;3349;49.830;8.748;2023-04-03T15:30:42;9.00;28.80
6627;DHT22;3349;49.830;8.748;2023-04-03T15:33:09;9.20;29.60
6627;DHT22;3349;49.830;8.748;2023-04-03T15:35:36;9.50;30.00
6627;DHT22;3349;49.830;8.748;2023-04-03T15:38:02;9.50;30.80
6627;DHT22;3349;49.830;8.748;2023-04-03T15:40:29;9.40;30.00
6627;DHT22;3349;49.830;8.748;2023-04-03T15:42:56;9.20;29.20
6627;DHT22;3349;49.830;8.748;2023-04-03T15:45:23;9.50;29.60
6627;DHT22;3349;49.830;8.748;2023-04-03T15:47:51;10.10;30.10
6627;DHT22;3349;49.830;8.748;2023-04-03T15:50:18;10.80;27.60
6627;DHT22;3349;49.830;8.748;2023-04-03T15:52:47;11.20;27.60
6627;DHT22;3349;49.830;8.748;2023-04-03T15:55:19;11.40;27.70
6627;DHT22;3349;49.830;8.748;2023-04-03T15:57:46;11.10;27.50
6627;DHT22;3349;49.830;8.748;2023-04-03T16:00:13;11.10;28.30
6627;DHT22;3349;49.830;8.748;2023-04-03T16:02:40;11.00;27.60
6627;DHT22;3349;49.830;8.748;2023-04-03T16:05:09;11.00;28.00
6627;DHT22;3349;49.830;8.748;2023-04-03T16:07:37;10.80;27.80
6627;DHT22;3349;49.830;8.748;2023-04-03T16:10:05;11.10;28.00
6627;DHT22;3349;49.830;8.748;2023-04-03T16:12:32;11.60;27.90
6627;DHT22;3349;49.830;8.748;2023-04-03T16:14:59;12.00;27.80
6627;DHT22;3349;49.830;8.748;2023-04-03T16:17:26;12.40;26.60
6627;DHT22;3349;49.830;8.748;2023-04-03T16:19:54;12.30;26.10
6627;DHT22;3349;49.830;8.748;2023-04-03T16:22:23;12.10;26.00
6627;DHT22;3349;49.830;8.748;2023-04-03T16:24:51;11.80;27.00
6627;DHT22;3349;49.830;8.748;2023-04-03T16:27:18;11.90;26.90
6627;DHT22;3349;49.830;8.748;2023-04-03T16:29:45;11.70;27.10
6627;DHT22;3349;49.830;8.748;2023-04-03T16:32:12;11.10;27.90
6627;DHT22;3349;49.830;8.748;2023-04-03T16:34:39;10.60;28.80
6627;DHT22;3349;49.830;8.748;2023-04-03T16:37:06;10.50;28.70
6627;DHT22;3349;49.830;8.748;2023-04-03T16:39:35;10.60;28.20
6627;DHT22;3349;49.830;8.748;2023-04-03T16:42:02;10.80;28.80
6627;DHT22;3349;49.830;8.748;2023-04-03T16:44:29;10.90;28.50